Time,TemperatureF,DewpointF,PressureIn,WindDirection,WindDirectionDegrees,WindSpeedMPH,WindSpeedGustMPH,Humidity,HourlyPrecipIn,Conditions,Clouds,dailyrainin,SoftwareType,DateUTC
2013-02-27 00:03:00,46.8,41.0,30.27,SE,142,0.0,0.0,80,0.00,,,0.00,meteohub,2013-02-27 08:03:00,
2013-02-27 00:08:00,46.8,40.6,30.26,SE,143,0.0,0.0,79,0.00,,,0.00,meteohub,2013-02-27 08:08:00,
2013-02-27 00:13:00,46.4,39.6,30.27,SE,143,0.0,0.0,77,0.00,,,0.00,meteohub,2013-02-27 08:13:00,
2013-02-27 00:18:00,46.0,39.2,30.26,SE,143,0.0,0.0,77,0.00,,,0.00,meteohub,2013-02-27 08:18:00,
2013-02-27 00:23:00,45.7,38.5,30.26,SE,143,0.0,0.0,76,0.00,,,0.00,meteohub,2013-02-27 08:23:00,
2013-02-27 00:28:00,45.3,37.9,30.27,SE,142,1.0,0.0,75,0.00,,,0.00,meteohub,2013-02-27 08:28:00,
2013-02-27 00:33:00,45.0,37.6,30.27,SE,143,0.0,0.0,75,0.00,,,0.00,meteohub,2013-02-27 08:33:00,
2013-02-27 00:39:00,44.4,37.0,30.27,SE,143,1.0,1.0,75,0.00,,,0.00,meteohub,2013-02-27 08:39:00,
2013-02-27 00:44:00,44.2,36.9,30.27,SE,133,2.0,2.0,75,0.00,,,0.00,meteohub,2013-02-27 08:44:00,
2013-02-27 00:49:00,44.8,37.0,30.27,SE,132,2.0,3.0,74,0.00,,,0.00,meteohub,2013-02-27 08:49:00,
2013-02-27 00:54:00,45.1,37.0,30.27,SE,132,0.0,3.0,73,0.00,,,0.00,meteohub,2013-02-27 08:54:00,
2013-02-27 00:59:00,45.1,37.0,30.27,SE,131,0.0,3.0,73,0.00,,,0.00,meteohub,2013-02-27 08:59:00,
2013-02-27 01:04:00,45.3,37.9,30.27,SE,132,0.0,3.0,75,0.00,,,0.00,meteohub,2013-02-27 09:04:00,
2013-02-27 01:09:00,45.5,38.1,30.27,SE,131,2.0,2.0,75,0.00,,,0.00,meteohub,2013-02-27 09:09:00,
2013-02-27 01:14:00,45.1,37.4,30.27,SE,129,3.0,3.0,74,0.00,,,0.00,meteohub,2013-02-27 09:14:00,
2013-02-27 01:19:00,45.0,37.6,30.27,SE,128,1.0,3.0,75,0.00,,,0.00,meteohub,2013-02-27 09:19:00,
2013-02-27 01:24:00,45.0,37.6,30.27,SE,128,0.0,3.0,75,0.00,,,0.00,meteohub,2013-02-27 09:24:00,
2013-02-27 01:29:00,45.0,37.9,30.27,SE,128,1.0,3.0,76,0.00,,,0.00,meteohub,2013-02-27 09:29:00,
2013-02-27 01:34:00,45.1,38.3,30.27,SE,129,0.0,3.0,77,0.00,,,0.00,meteohub,2013-02-27 09:34:00,
2013-02-27 01:39:00,45.3,38.8,30.27,SE,128,0.0,2.0,78,0.00,,,0.00,meteohub,2013-02-27 09:39:00,
2013-02-27 01:44:00,45.3,38.5,30.28,SE,128,0.0,1.0,77,0.00,,,0.00,meteohub,2013-02-27 09:44:00,
2013-02-27 01:49:00,45.3,38.5,30.28,SE,128,0.0,1.0,77,0.00,,,0.00,meteohub,2013-02-27 09:49:00,
2013-02-27 01:54:00,45.1,38.7,30.28,SE,128,0.0,1.0,78,0.00,,,0.00,meteohub,2013-02-27 09:54:00,
2013-02-27 01:59:00,45.1,38.7,30.28,SE,128,0.0,0.0,78,0.00,,,0.00,meteohub,2013-02-27 09:59:00,
2013-02-27 02:04:00,44.8,38.3,30.28,SE,128,1.0,0.0,78,0.00,,,0.00,meteohub,2013-02-27 10:04:00,
2013-02-27 02:10:00,44.8,38.7,30.29,SE,128,1.0,2.0,79,0.00,,,0.00,meteohub,2013-02-27 10:10:00,
2013-02-27 02:15:00,44.8,39.4,30.28,SE,128,2.0,2.0,81,0.00,,,0.00,meteohub,2013-02-27 10:15:00,
2013-02-27 02:20:00,44.6,38.8,30.29,SE,128,2.0,3.0,80,0.00,,,0.00,meteohub,2013-02-27 10:20:00,
2013-02-27 02:25:00,44.8,39.4,30.29,SE,128,1.0,3.0,81,0.00,,,0.00,meteohub,2013-02-27 10:25:00,
2013-02-27 02:30:00,45.0,39.6,30.29,SE,128,0.0,3.0,81,0.00,,,0.00,meteohub,2013-02-27 10:30:00,
2013-02-27 02:35:00,45.1,39.7,30.29,SE,128,0.0,3.0,81,0.00,,,0.00,meteohub,2013-02-27 10:35:00,
2013-02-27 02:40:00,45.1,39.7,30.29,SE,129,1.0,3.0,81,0.00,,,0.00,meteohub,2013-02-27 10:40:00,
2013-02-27 02:45:00,45.1,39.7,30.29,SE,128,1.0,2.0,81,0.00,,,0.00,meteohub,2013-02-27 10:45:00,
2013-02-27 02:50:00,45.3,40.1,30.29,SE,128,0.0,1.0,82,0.00,,,0.00,meteohub,2013-02-27 10:50:00,
2013-02-27 02:55:00,45.5,40.6,30.29,SE,128,0.0,1.0,83,0.00,,,0.00,meteohub,2013-02-27 10:55:00,
2013-02-27 03:00:00,45.5,40.6,30.29,SE,128,0.0,1.0,83,0.00,,,0.00,meteohub,2013-02-27 11:00:00,
2013-02-27 03:05:00,45.1,39.9,30.29,SE,128,0.0,0.0,82,0.00,,,0.00,meteohub,2013-02-27 11:05:00,
2013-02-27 03:11:00,44.6,39.2,30.29,SE,129,0.0,1.0,81,0.00,,,0.00,meteohub,2013-02-27 11:11:00,
2013-02-27 03:16:00,43.7,38.3,30.29,SE,128,2.0,2.0,81,0.00,,,0.00,meteohub,2013-02-27 11:16:00,
2013-02-27 03:21:00,43.2,38.1,30.29,SE,128,2.0,3.0,82,0.00,,,0.00,meteohub,2013-02-27 11:21:00,
2013-02-27 03:26:00,43.3,38.3,30.29,ESE,114,3.0,4.0,82,0.00,,,0.00,meteohub,2013-02-27 11:26:00,
2013-02-27 03:31:00,43.3,38.5,30.29,ESE,113,3.0,4.0,83,0.00,,,0.00,meteohub,2013-02-27 11:31:00,
2013-02-27 03:36:00,43.7,39.6,30.29,ESE,114,2.0,4.0,85,0.00,,,0.00,meteohub,2013-02-27 11:36:00,
2013-02-27 03:41:00,44.2,40.3,30.29,ESE,113,2.0,3.0,86,0.00,,,0.00,meteohub,2013-02-27 11:41:00,
2013-02-27 03:46:00,44.4,40.5,30.29,ESE,112,2.0,3.0,86,0.00,,,0.00,meteohub,2013-02-27 11:46:00,
2013-02-27 03:51:00,44.1,39.9,30.29,ESE,113,2.0,2.0,85,0.00,,,0.00,meteohub,2013-02-27 11:51:00,
2013-02-27 03:56:00,43.5,39.4,30.29,ESE,113,1.0,3.0,85,0.00,,,0.00,meteohub,2013-02-27 11:56:00,
2013-02-27 04:01:00,43.5,39.6,30.28,ESE,113,2.0,3.0,86,0.00,,,0.00,meteohub,2013-02-27 12:01:00,
2013-02-27 04:06:00,43.9,39.9,30.29,ESE,113,0.0,3.0,86,0.00,,,0.00,meteohub,2013-02-27 12:06:00,
2013-02-27 04:11:00,44.1,40.1,30.28,ESE,113,0.0,3.0,86,0.00,,,0.00,meteohub,2013-02-27 12:11:00,
2013-02-27 04:16:00,43.9,39.7,30.29,ESE,112,0.0,2.0,85,0.00,,,0.00,meteohub,2013-02-27 12:16:00,
2013-02-27 04:21:00,43.3,38.8,30.29,ESE,113,0.0,0.0,84,0.00,,,0.00,meteohub,2013-02-27 12:21:00,
2013-02-27 04:26:00,43.3,39.2,30.29,ESE,112,0.0,0.0,85,0.00,,,0.00,meteohub,2013-02-27 12:26:00,
2013-02-27 04:31:00,43.3,39.4,30.28,ESE,112,0.0,0.0,86,0.00,,,0.00,meteohub,2013-02-27 12:31:00,
2013-02-27 04:37:00,43.3,39.2,30.29,ESE,113,0.0,0.0,85,0.00,,,0.00,meteohub,2013-02-27 12:37:00,
2013-02-27 04:42:00,43.5,39.6,30.29,ESE,113,0.0,0.0,86,0.00,,,0.00,meteohub,2013-02-27 12:42:00,
2013-02-27 04:47:00,43.2,38.3,30.29,ESE,113,0.0,0.0,83,0.00,,,0.00,meteohub,2013-02-27 12:47:00,
2013-02-27 04:52:00,42.4,37.0,30.29,ESE,114,1.0,2.0,81,0.00,,,0.00,meteohub,2013-02-27 12:52:00,
2013-02-27 04:57:00,41.9,36.5,30.29,ESE,113,0.0,2.0,81,0.00,,,0.00,meteohub,2013-02-27 12:57:00,
2013-02-27 05:03:00,41.5,35.8,30.29,ESE,112,1.0,2.0,80,0.00,,,0.00,meteohub,2013-02-27 13:03:00,
2013-02-27 05:08:00,41.4,35.6,30.29,ESE,113,0.0,2.0,80,0.00,,,0.00,meteohub,2013-02-27 13:08:00,
2013-02-27 05:13:00,41.0,35.1,30.29,ESE,112,0.0,2.0,79,0.00,,,0.00,meteohub,2013-02-27 13:13:00,
2013-02-27 05:18:00,41.2,34.9,30.29,ESE,112,0.0,2.0,78,0.00,,,0.00,meteohub,2013-02-27 13:18:00,
2013-02-27 05:23:00,41.2,34.5,30.30,ESE,113,0.0,2.0,77,0.00,,,0.00,meteohub,2013-02-27 13:23:00,
2013-02-27 05:28:00,41.2,34.5,30.30,ESE,113,0.0,2.0,77,0.00,,,0.00,meteohub,2013-02-27 13:28:00,
2013-02-27 05:33:00,41.0,34.3,30.30,ESE,114,1.0,2.0,77,0.00,,,0.00,meteohub,2013-02-27 13:33:00,
2013-02-27 05:38:00,40.8,34.2,30.30,ESE,113,0.0,2.0,77,0.00,,,0.00,meteohub,2013-02-27 13:38:00,
2013-02-27 05:43:00,41.2,34.2,30.30,ESE,113,0.0,2.0,76,0.00,,,0.00,meteohub,2013-02-27 13:43:00,
2013-02-27 05:49:00,41.2,34.2,30.30,ESE,112,0.0,2.0,76,0.00,,,0.00,meteohub,2013-02-27 13:49:00,
2013-02-27 05:54:00,41.0,34.0,30.30,ESE,112,0.0,2.0,76,0.00,,,0.00,meteohub,2013-02-27 13:54:00,
2013-02-27 05:59:00,41.2,34.2,30.31,ESE,113,0.0,2.0,76,0.00,,,0.00,meteohub,2013-02-27 13:59:00,
2013-02-27 06:04:00,41.2,34.2,30.31,ESE,113,0.0,2.0,76,0.00,,,0.00,meteohub,2013-02-27 14:04:00,
2013-02-27 06:09:00,41.2,34.2,30.31,ESE,113,0.0,1.0,76,0.00,,,0.00,meteohub,2013-02-27 14:09:00,
2013-02-27 06:14:00,41.2,34.2,30.31,ESE,113,0.0,1.0,76,0.00,,,0.00,meteohub,2013-02-27 14:14:00,
2013-02-27 06:19:00,41.0,34.0,30.32,ESE,113,0.0,1.0,76,0.00,,,0.00,meteohub,2013-02-27 14:19:00,
2013-02-27 06:24:00,40.8,33.8,30.31,ESE,113,0.0,1.0,76,0.00,,,0.00,meteohub,2013-02-27 14:24:00,
2013-02-27 06:29:00,40.5,33.8,30.31,ESE,112,0.0,1.0,77,0.00,,,0.00,meteohub,2013-02-27 14:29:00,
2013-02-27 06:34:00,40.3,34.0,30.32,ESE,113,2.0,0.0,78,0.00,,,0.00,meteohub,2013-02-27 14:34:00,
2013-02-27 06:39:00,40.8,35.4,30.32,ENE,77,4.0,0.0,81,0.00,,,0.00,meteohub,2013-02-27 14:39:00,
2013-02-27 06:45:00,41.5,36.1,30.33,NE,39,4.0,4.0,81,0.00,,,0.00,meteohub,2013-02-27 14:45:00,
2013-02-27 06:50:00,41.9,36.9,30.33,NE,35,4.0,5.0,82,0.00,,,0.00,meteohub,2013-02-27 14:50:00,
2013-02-27 06:55:00,42.3,37.4,30.33,NE,35,2.0,5.0,83,0.00,,,0.00,meteohub,2013-02-27 14:55:00,
2013-02-27 07:00:00,42.1,37.2,30.33,NE,34,2.0,5.0,83,0.00,,,0.00,meteohub,2013-02-27 15:00:00,
2013-02-27 07:05:00,42.1,37.6,30.33,NE,35,0.0,5.0,84,0.00,,,0.00,meteohub,2013-02-27 15:05:00,
2013-02-27 07:10:00,42.1,37.6,30.33,NE,34,2.0,5.0,84,0.00,,,0.00,meteohub,2013-02-27 15:10:00,
2013-02-27 07:15:00,42.3,38.1,30.33,NE,34,1.0,3.0,85,0.00,,,0.00,meteohub,2013-02-27 15:15:00,
2013-02-27 07:21:00,42.6,38.7,30.34,NE,36,2.0,3.0,86,0.00,,,0.00,meteohub,2013-02-27 15:21:00,
2013-02-27 07:26:00,42.8,38.8,30.34,NE,35,0.0,3.0,86,0.00,,,0.00,meteohub,2013-02-27 15:26:00,
2013-02-27 07:31:00,43.0,39.0,30.34,NNE,33,1.0,3.0,86,0.00,,,0.00,meteohub,2013-02-27 15:31:00,
2013-02-27 07:36:00,43.2,39.2,30.35,NE,35,2.0,3.0,86,0.00,,,0.00,meteohub,2013-02-27 15:36:00,
2013-02-27 07:41:00,43.3,39.4,30.35,NNW,345,5.0,5.0,86,0.00,,,0.00,meteohub,2013-02-27 15:41:00,
2013-02-27 07:46:00,43.5,39.9,30.35,North,359,5.0,7.0,87,0.00,,,0.00,meteohub,2013-02-27 15:46:00,
2013-02-27 07:51:00,44.1,40.8,30.35,NNE,15,3.0,7.0,88,0.00,,,0.00,meteohub,2013-02-27 15:51:00,
2013-02-27 07:56:00,44.4,41.2,30.35,NNE,14,5.0,8.0,88,0.00,,,0.00,meteohub,2013-02-27 15:56:00,
2013-02-27 08:02:00,44.8,41.4,30.35,NNE,15,3.0,8.0,88,0.00,,,0.00,meteohub,2013-02-27 16:02:00,
2013-02-27 08:07:00,45.0,41.4,30.35,NNE,14,3.0,8.0,87,0.00,,,0.00,meteohub,2013-02-27 16:07:00,
2013-02-27 08:12:00,45.0,41.4,30.36,NNE,12,1.0,7.0,87,0.00,,,0.00,meteohub,2013-02-27 16:12:00,
2013-02-27 08:17:00,45.3,41.9,30.35,North,10,1.0,5.0,88,0.00,,,0.00,meteohub,2013-02-27 16:17:00,
2013-02-27 08:22:00,45.7,42.1,30.35,North,8,2.0,5.0,87,0.00,,,0.00,meteohub,2013-02-27 16:22:00,
2013-02-27 08:27:00,46.0,42.4,30.36,NNW,330,3.0,4.0,87,0.00,,,0.00,meteohub,2013-02-27 16:27:00,
2013-02-27 08:32:00,46.2,42.3,30.36,WNW,293,4.0,4.0,86,0.00,,,0.00,meteohub,2013-02-27 16:32:00,
2013-02-27 08:38:00,46.2,42.3,30.36,WNW,300,6.0,6.0,86,0.00,,,0.00,meteohub,2013-02-27 16:38:00,
2013-02-27 08:43:00,46.4,42.1,30.37,WNW,299,5.0,6.0,85,0.00,,,0.00,meteohub,2013-02-27 16:43:00,
2013-02-27 08:48:00,46.2,41.9,30.37,NW,315,2.0,7.0,85,0.00,,,0.00,meteohub,2013-02-27 16:48:00,
2013-02-27 08:53:00,46.0,41.7,30.37,NW,318,5.0,8.0,85,0.00,,,0.00,meteohub,2013-02-27 16:53:00,
2013-02-27 08:58:00,46.2,41.9,30.37,NNW,328,3.0,8.0,85,0.00,,,0.00,meteohub,2013-02-27 16:58:00,
2013-02-27 09:03:00,46.6,42.3,30.37,NNW,341,4.0,8.0,85,0.00,,,0.00,meteohub,2013-02-27 17:03:00,
2013-02-27 09:08:00,46.8,42.4,30.37,NNW,341,2.0,7.0,85,0.00,,,0.00,meteohub,2013-02-27 17:08:00,
2013-02-27 09:13:00,46.9,42.6,30.37,NNW,340,0.0,6.0,85,0.00,,,0.00,meteohub,2013-02-27 17:13:00,
2013-02-27 09:18:00,47.5,43.2,30.38,WNW,299,5.0,6.0,85,0.00,,,0.00,meteohub,2013-02-27 17:18:00,
2013-02-27 09:23:00,47.8,43.0,30.38,WNW,289,2.0,5.0,83,0.00,,,0.00,meteohub,2013-02-27 17:23:00,
2013-02-27 09:28:00,48.0,43.2,30.38,WNW,289,1.0,5.0,83,0.00,,,0.00,meteohub,2013-02-27 17:28:00,
2013-02-27 09:34:00,48.4,43.5,30.38,WNW,287,1.0,5.0,83,0.00,,,0.00,meteohub,2013-02-27 17:34:00,
2013-02-27 09:39:00,48.9,43.7,30.38,WNW,292,3.0,5.0,82,0.00,,,0.00,meteohub,2013-02-27 17:39:00,
2013-02-27 09:44:00,49.3,43.7,30.38,WNW,295,0.0,4.0,81,0.00,,,0.00,meteohub,2013-02-27 17:44:00,
2013-02-27 09:49:00,49.8,44.2,30.38,WNW,295,1.0,4.0,81,0.00,,,0.00,meteohub,2013-02-27 17:49:00,
2013-02-27 09:54:00,50.4,44.1,30.38,WNW,299,1.0,4.0,79,0.00,,,0.00,meteohub,2013-02-27 17:54:00,
2013-02-27 09:59:00,51.1,44.4,30.38,WNW,295,5.0,5.0,78,0.00,,,0.00,meteohub,2013-02-27 17:59:00,
2013-02-27 10:04:00,51.3,44.2,30.38,WNW,298,3.0,5.0,77,0.00,,,0.00,meteohub,2013-02-27 18:04:00,
2013-02-27 10:09:00,51.4,44.4,30.38,WNW,300,1.0,5.0,77,0.00,,,0.00,meteohub,2013-02-27 18:09:00,
2013-02-27 10:14:00,52.0,44.6,30.38,WNW,299,0.0,5.0,76,0.00,,,0.00,meteohub,2013-02-27 18:14:00,
2013-02-27 10:19:00,52.5,44.4,30.38,WNW,299,0.0,5.0,74,0.00,,,0.00,meteohub,2013-02-27 18:19:00,
2013-02-27 10:24:00,53.1,45.0,30.37,WNW,300,0.0,4.0,74,0.00,,,0.00,meteohub,2013-02-27 18:24:00,
2013-02-27 10:29:00,53.8,44.6,30.38,WNW,301,0.0,4.0,71,0.00,,,0.00,meteohub,2013-02-27 18:29:00,
2013-02-27 10:34:00,54.1,45.0,30.37,WSW,253,4.0,4.0,71,0.00,,,0.00,meteohub,2013-02-27 18:34:00,
2013-02-27 10:39:00,54.0,45.1,30.37,West,260,0.0,4.0,72,0.00,,,0.00,meteohub,2013-02-27 18:39:00,
2013-02-27 10:44:00,54.3,44.8,30.37,West,261,2.0,6.0,70,0.00,,,0.00,meteohub,2013-02-27 18:44:00,
2013-02-27 10:49:00,54.3,44.8,30.37,West,261,1.0,6.0,70,0.00,,,0.00,meteohub,2013-02-27 18:49:00,
2013-02-27 10:54:00,54.9,45.7,30.36,SSW,198,5.0,6.0,71,0.00,,,0.00,meteohub,2013-02-27 18:54:00,
2013-02-27 10:59:00,54.9,45.7,30.37,SSW,198,4.0,6.0,71,0.00,,,0.00,meteohub,2013-02-27 18:59:00,
2013-02-27 11:04:00,54.9,46.0,30.37,SSW,208,5.0,6.0,72,0.00,,,0.00,meteohub,2013-02-27 19:04:00,
2013-02-27 11:09:00,54.9,46.0,30.37,SW,218,6.0,7.0,72,0.00,,,0.00,meteohub,2013-02-27 19:09:00,
2013-02-27 11:14:00,54.7,45.9,30.37,South,183,1.0,7.0,72,0.00,,,0.00,meteohub,2013-02-27 19:14:00,
2013-02-27 11:19:00,54.7,45.9,30.37,SSW,199,1.0,8.0,72,0.00,,,0.00,meteohub,2013-02-27 19:19:00,
2013-02-27 11:24:00,55.0,45.9,30.37,SSW,194,2.0,8.0,71,0.00,,,0.00,meteohub,2013-02-27 19:24:00,
2013-02-27 11:30:00,55.2,46.0,30.37,SW,223,5.0,8.0,71,0.00,,,0.00,meteohub,2013-02-27 19:30:00,
2013-02-27 11:35:00,55.8,45.7,30.37,WSW,241,3.0,7.0,69,0.00,,,0.00,meteohub,2013-02-27 19:35:00,
2013-02-27 11:40:00,55.9,45.5,30.37,West,263,4.0,7.0,68,0.00,,,0.00,meteohub,2013-02-27 19:40:00,
2013-02-27 11:45:00,56.5,46.0,30.36,WSW,237,5.0,7.0,68,0.00,,,0.00,meteohub,2013-02-27 19:45:00,
2013-02-27 11:50:00,56.8,46.0,30.37,SSW,199,3.0,8.0,67,0.00,,,0.00,meteohub,2013-02-27 19:50:00,
2013-02-27 11:55:00,57.2,45.9,30.36,SW,220,2.0,8.0,66,0.00,,,0.00,meteohub,2013-02-27 19:55:00,
2013-02-27 12:00:00,57.4,45.7,30.36,South,169,1.0,8.0,65,0.00,,,0.00,meteohub,2013-02-27 20:00:00,
2013-02-27 12:05:00,57.6,45.5,30.36,SSW,208,4.0,7.0,64,0.00,,,0.00,meteohub,2013-02-27 20:05:00,
2013-02-27 12:10:00,57.9,45.9,30.36,South,170,5.0,7.0,64,0.00,,,0.00,meteohub,2013-02-27 20:10:00,
2013-02-27 12:15:00,57.7,45.3,30.36,SSE,163,3.0,7.0,63,0.00,,,0.00,meteohub,2013-02-27 20:15:00,
2013-02-27 12:20:00,57.7,44.8,30.36,SSW,195,4.0,7.0,62,0.00,,,0.00,meteohub,2013-02-27 20:20:00,
2013-02-27 12:25:00,58.1,45.1,30.36,SW,216,5.0,7.0,62,0.00,,,0.00,meteohub,2013-02-27 20:25:00,
2013-02-27 12:30:00,58.5,45.1,30.36,SSW,204,2.0,7.0,61,0.00,,,0.00,meteohub,2013-02-27 20:30:00,
2013-02-27 12:35:00,58.8,45.3,30.36,SSW,203,1.0,7.0,61,0.00,,,0.00,meteohub,2013-02-27 20:35:00,
2013-02-27 12:41:00,59.4,45.5,30.36,SSW,204,2.0,7.0,60,0.00,,,0.00,meteohub,2013-02-27 20:41:00,
2013-02-27 12:46:00,59.2,45.3,30.35,SSW,194,4.0,7.0,60,0.00,,,0.00,meteohub,2013-02-27 20:46:00,
2013-02-27 12:51:00,59.5,45.7,30.35,SSE,166,4.0,8.0,60,0.00,,,0.00,meteohub,2013-02-27 20:51:00,
2013-02-27 12:56:00,59.5,45.7,30.34,South,177,2.0,8.0,60,0.00,,,0.00,meteohub,2013-02-27 20:56:00,
2013-02-27 13:01:00,60.3,45.5,30.34,South,176,1.0,6.0,58,0.00,,,0.00,meteohub,2013-02-27 21:01:00,
2013-02-27 13:06:00,61.0,45.7,30.34,SW,218,3.0,6.0,57,0.00,,,0.00,meteohub,2013-02-27 21:06:00,
2013-02-27 13:11:00,61.2,44.8,30.34,SSW,212,5.0,7.0,55,0.00,,,0.00,meteohub,2013-02-27 21:11:00,
2013-02-27 13:16:00,61.0,45.7,30.34,SW,222,6.0,9.0,57,0.00,,,0.00,meteohub,2013-02-27 21:16:00,
2013-02-27 13:21:00,60.6,45.3,30.34,SW,230,5.0,9.0,57,0.00,,,0.00,meteohub,2013-02-27 21:21:00,
2013-02-27 13:26:00,60.3,45.9,30.34,SSW,212,4.0,9.0,59,0.00,,,0.00,meteohub,2013-02-27 21:26:00,
2013-02-27 13:31:00,60.4,45.7,30.34,SSW,210,6.0,7.0,58,0.00,,,0.00,meteohub,2013-02-27 21:31:00,
2013-02-27 13:36:00,60.3,45.5,30.33,South,189,6.0,7.0,58,0.00,,,0.00,meteohub,2013-02-27 21:36:00,
2013-02-27 13:41:00,60.4,45.1,30.33,SSW,206,5.0,8.0,57,0.00,,,0.00,meteohub,2013-02-27 21:41:00,
2013-02-27 13:46:00,60.6,44.8,30.33,SW,233,6.0,8.0,56,0.00,,,0.00,meteohub,2013-02-27 21:46:00,
2013-02-27 13:51:00,60.4,44.2,30.33,SSW,203,6.0,9.0,55,0.00,,,0.00,meteohub,2013-02-27 21:51:00,
2013-02-27 13:56:00,60.3,43.0,30.33,SSW,204,4.0,9.0,53,0.00,,,0.00,meteohub,2013-02-27 21:56:00,
2013-02-27 14:01:00,60.1,43.0,30.33,SW,229,6.0,9.0,53,0.00,,,0.00,meteohub,2013-02-27 22:01:00,
2013-02-27 14:06:00,60.6,43.3,30.33,SW,214,6.0,8.0,53,0.00,,,0.00,meteohub,2013-02-27 22:06:00,
2013-02-27 14:11:00,60.4,42.8,30.33,SW,217,4.0,8.0,52,0.00,,,0.00,meteohub,2013-02-27 22:11:00,
2013-02-27 14:17:00,60.8,41.0,30.33,SW,214,5.0,8.0,48,0.00,,,0.00,meteohub,2013-02-27 22:17:00,
2013-02-27 14:22:00,61.5,39.9,30.32,SSW,204,3.0,8.0,45,0.00,,,0.00,meteohub,2013-02-27 22:22:00,
2013-02-27 14:27:00,61.9,41.4,30.32,SSW,193,6.0,8.0,47,0.00,,,0.00,meteohub,2013-02-27 22:27:00,
2013-02-27 14:32:00,61.2,40.3,30.32,SSE,160,5.0,8.0,46,0.00,,,0.00,meteohub,2013-02-27 22:32:00,
2013-02-27 14:37:00,61.0,38.8,30.32,SSW,197,7.0,8.0,44,0.00,,,0.00,meteohub,2013-02-27 22:37:00,
2013-02-27 14:42:00,61.0,39.6,30.33,SSW,192,5.0,8.0,45,0.00,,,0.00,meteohub,2013-02-27 22:42:00,
2013-02-27 14:47:00,61.0,35.8,30.33,South,181,4.0,8.0,39,0.00,,,0.00,meteohub,2013-02-27 22:47:00,
2013-02-27 14:52:00,60.6,34.9,30.33,SSE,156,6.0,8.0,38,0.00,,,0.00,meteohub,2013-02-27 22:52:00,
2013-02-27 14:57:00,60.1,42.4,30.33,South,174,5.0,8.0,52,0.00,,,0.00,meteohub,2013-02-27 22:57:00,
2013-02-27 15:02:00,59.7,44.1,30.33,South,169,7.0,8.0,56,0.00,,,0.00,meteohub,2013-02-27 23:02:00,
2013-02-27 15:07:00,59.5,45.7,30.33,SSW,193,7.0,9.0,60,0.00,,,0.00,meteohub,2013-02-27 23:07:00,
2013-02-27 15:12:00,59.4,45.9,30.33,SSW,194,6.0,9.0,61,0.00,,,0.00,meteohub,2013-02-27 23:12:00,
2013-02-27 15:17:00,59.7,45.3,30.33,South,183,6.0,9.0,59,0.00,,,0.00,meteohub,2013-02-27 23:17:00,
2013-02-27 15:22:00,60.3,44.4,30.33,South,181,5.0,9.0,56,0.00,,,0.00,meteohub,2013-02-27 23:22:00,
2013-02-27 15:27:00,60.1,46.2,30.33,SSE,165,5.0,8.0,60,0.00,,,0.00,meteohub,2013-02-27 23:27:00,
2013-02-27 15:32:00,59.4,46.4,30.33,SSW,210,5.0,8.0,62,0.00,,,0.00,meteohub,2013-02-27 23:32:00,
2013-02-27 15:37:00,59.2,46.6,30.33,SSW,192,6.0,8.0,63,0.00,,,0.00,meteohub,2013-02-27 23:37:00,
2013-02-27 15:42:00,58.8,46.2,30.33,SSW,192,6.0,8.0,63,0.00,,,0.00,meteohub,2013-02-27 23:42:00,
2013-02-27 15:47:00,58.8,45.9,30.33,South,191,5.0,8.0,62,0.00,,,0.00,meteohub,2013-02-27 23:47:00,
2013-02-27 15:52:00,58.3,45.3,30.33,South,179,4.0,8.0,62,0.00,,,0.00,meteohub,2013-02-27 23:52:00,
2013-02-27 15:58:00,58.3,45.7,30.33,South,190,1.0,8.0,63,0.00,,,0.00,meteohub,2013-02-27 23:58:00,
2013-02-27 16:03:00,58.5,45.9,30.33,South,182,4.0,8.0,63,0.00,,,0.00,meteohub,2013-02-28 00:03:00,
2013-02-27 16:08:00,58.1,45.1,30.33,South,184,5.0,7.0,62,0.00,,,0.00,meteohub,2013-02-28 00:08:00,
2013-02-27 16:13:00,57.9,45.0,30.33,South,177,5.0,7.0,62,0.00,,,0.00,meteohub,2013-02-28 00:13:00,
2013-02-27 16:18:00,57.7,45.3,30.33,South,182,3.0,7.0,63,0.00,,,0.00,meteohub,2013-02-28 00:18:00,
2013-02-27 16:23:00,58.3,45.7,30.33,South,187,0.0,7.0,63,0.00,,,0.00,meteohub,2013-02-28 00:23:00,
2013-02-27 16:28:00,58.6,45.7,30.33,South,183,5.0,7.0,62,0.00,,,0.00,meteohub,2013-02-28 00:28:00,
2013-02-27 16:33:00,58.6,46.0,30.33,SSE,167,2.0,7.0,63,0.00,,,0.00,meteohub,2013-02-28 00:33:00,
2013-02-27 16:38:00,58.6,46.0,30.33,SSE,168,4.0,7.0,63,0.00,,,0.00,meteohub,2013-02-28 00:38:00,
2013-02-27 16:43:00,58.6,46.0,30.32,SSW,197,7.0,7.0,63,0.00,,,0.00,meteohub,2013-02-28 00:43:00,
2013-02-27 16:48:00,58.5,45.1,30.33,South,189,4.0,7.0,61,0.00,,,0.00,meteohub,2013-02-28 00:48:00,
2013-02-27 16:53:00,58.5,45.1,30.32,South,183,2.0,7.0,61,0.00,,,0.00,meteohub,2013-02-28 00:53:00,
2013-02-27 16:58:00,58.5,45.5,30.32,South,171,3.0,7.0,62,0.00,,,0.00,meteohub,2013-02-28 00:58:00,
2013-02-27 17:03:00,57.7,45.3,30.32,SSE,159,5.0,6.0,63,0.00,,,0.00,meteohub,2013-02-28 01:03:00,
2013-02-27 17:08:00,57.2,45.5,30.33,SSE,153,4.0,7.0,65,0.00,,,0.00,meteohub,2013-02-28 01:08:00,
2013-02-27 17:13:00,56.7,45.5,30.33,SSE,157,1.0,7.0,66,0.00,,,0.00,meteohub,2013-02-28 01:13:00,
2013-02-27 17:19:00,56.7,45.0,30.33,SE,129,4.0,7.0,65,0.00,,,0.00,meteohub,2013-02-28 01:19:00,
2013-02-27 17:24:00,56.3,45.9,30.33,SE,130,5.0,7.0,68,0.00,,,0.00,meteohub,2013-02-28 01:24:00,
2013-02-27 17:29:00,55.8,46.0,30.34,SE,135,1.0,7.0,70,0.00,,,0.00,meteohub,2013-02-28 01:29:00,
2013-02-27 17:34:00,55.6,46.4,30.34,SE,143,3.0,9.0,71,0.00,,,0.00,meteohub,2013-02-28 01:34:00,
2013-02-27 17:39:00,55.2,46.0,30.34,South,172,3.0,9.0,71,0.00,,,0.00,meteohub,2013-02-28 01:39:00,
2013-02-27 17:44:00,55.0,45.9,30.34,SE,146,4.0,6.0,71,0.00,,,0.00,meteohub,2013-02-28 01:44:00,
2013-02-27 17:49:00,55.0,46.2,30.34,SE,143,0.0,6.0,72,0.00,,,0.00,meteohub,2013-02-28 01:49:00,
2013-02-27 17:54:00,54.7,46.2,30.35,SE,143,1.0,7.0,73,0.00,,,0.00,meteohub,2013-02-28 01:54:00,
2013-02-27 17:59:00,54.3,46.2,30.35,ESE,120,1.0,7.0,74,0.00,,,0.00,meteohub,2013-02-28 01:59:00,
2013-02-27 18:04:00,54.0,46.2,30.35,ESE,122,5.0,7.0,75,0.00,,,0.00,meteohub,2013-02-28 02:04:00,
2013-02-27 18:09:00,53.8,46.4,30.35,SE,139,5.0,8.0,76,0.00,,,0.00,meteohub,2013-02-28 02:09:00,
2013-02-27 18:14:00,53.6,46.2,30.35,SE,143,4.0,8.0,76,0.00,,,0.00,meteohub,2013-02-28 02:14:00,
2013-02-27 18:19:00,53.8,45.7,30.35,ESE,122,3.0,10.0,74,0.00,,,0.00,meteohub,2013-02-28 02:19:00,
2013-02-27 18:24:00,54.3,45.5,30.35,SSE,166,6.0,10.0,72,0.00,,,0.00,meteohub,2013-02-28 02:24:00,
2013-02-27 18:29:00,55.0,45.1,30.35,SW,222,2.0,10.0,69,0.00,,,0.00,meteohub,2013-02-28 02:29:00,
2013-02-27 18:34:00,55.2,44.8,30.35,South,172,5.0,7.0,68,0.00,,,0.00,meteohub,2013-02-28 02:34:00,
2013-02-27 18:39:00,54.9,45.3,30.36,SSE,160,4.0,7.0,70,0.00,,,0.00,meteohub,2013-02-28 02:39:00,
2013-02-27 18:44:00,54.1,45.3,30.36,SSE,160,4.0,7.0,72,0.00,,,0.00,meteohub,2013-02-28 02:44:00,
2013-02-27 18:49:00,53.6,45.5,30.36,SE,139,2.0,6.0,74,0.00,,,0.00,meteohub,2013-02-28 02:49:00,
2013-02-27 18:54:00,53.2,45.9,30.37,SE,139,2.0,6.0,76,0.00,,,0.00,meteohub,2013-02-28 02:54:00,
2013-02-27 18:59:00,53.1,45.7,30.37,SE,139,2.0,5.0,76,0.00,,,0.00,meteohub,2013-02-28 02:59:00,
2013-02-27 19:04:00,53.2,45.9,30.37,SE,139,3.0,5.0,76,0.00,,,0.00,meteohub,2013-02-28 03:04:00,
2013-02-27 19:09:00,53.2,45.9,30.37,SSE,158,0.0,4.0,76,0.00,,,0.00,meteohub,2013-02-28 03:09:00,
2013-02-27 19:14:00,53.4,45.3,30.37,SSW,207,3.0,5.0,74,0.00,,,0.00,meteohub,2013-02-28 03:14:00,
2013-02-27 19:20:00,54.0,45.9,30.37,South,185,3.0,5.0,74,0.00,,,0.00,meteohub,2013-02-28 03:20:00,
2013-02-27 19:25:00,53.8,46.0,30.37,South,185,0.0,7.0,75,0.00,,,0.00,meteohub,2013-02-28 03:25:00,
2013-02-27 19:30:00,53.4,46.0,30.37,South,185,1.0,7.0,76,0.00,,,0.00,meteohub,2013-02-28 03:30:00,
2013-02-27 19:35:00,53.2,46.6,30.38,South,176,3.0,7.0,78,0.00,,,0.00,meteohub,2013-02-28 03:35:00,
2013-02-27 19:40:00,52.9,46.6,30.38,SSE,153,5.0,5.0,79,0.00,,,0.00,meteohub,2013-02-28 03:40:00,
2013-02-27 19:45:00,52.7,46.8,30.38,SSE,159,2.0,6.0,80,0.00,,,0.00,meteohub,2013-02-28 03:45:00,
2013-02-27 19:50:00,52.5,46.9,30.38,SSE,164,2.0,6.0,81,0.00,,,0.00,meteohub,2013-02-28 03:50:00,
2013-02-27 19:55:00,52.3,46.9,30.38,SSE,149,6.0,6.0,82,0.00,,,0.00,meteohub,2013-02-28 03:55:00,
2013-02-27 20:00:00,52.2,47.1,30.38,SE,143,5.0,6.0,83,0.00,,,0.00,meteohub,2013-02-28 04:00:00,
2013-02-27 20:05:00,52.2,47.5,30.38,SE,145,6.0,7.0,84,0.00,,,0.00,meteohub,2013-02-28 04:05:00,
2013-02-27 20:10:00,52.0,47.7,30.39,SE,140,3.0,7.0,85,0.00,,,0.00,meteohub,2013-02-28 04:10:00,
2013-02-27 20:15:00,52.0,47.7,30.39,SE,142,5.0,8.0,85,0.00,,,0.00,meteohub,2013-02-28 04:15:00,
2013-02-27 20:20:00,51.8,47.7,30.39,SE,143,4.0,8.0,86,0.00,,,0.00,meteohub,2013-02-28 04:20:00,
2013-02-27 20:25:00,52.0,47.7,30.39,SE,146,5.0,8.0,85,0.00,,,0.00,meteohub,2013-02-28 04:25:00,
2013-02-27 20:30:00,51.8,47.7,30.39,SE,133,6.0,8.0,86,0.00,,,0.00,meteohub,2013-02-28 04:30:00,
2013-02-27 20:35:00,51.6,47.5,30.39,SE,146,6.0,9.0,86,0.00,,,0.00,meteohub,2013-02-28 04:35:00,
2013-02-27 20:40:00,51.8,47.7,30.39,SE,146,4.0,9.0,86,0.00,,,0.00,meteohub,2013-02-28 04:40:00,
2013-02-27 20:45:00,51.6,47.5,30.39,SE,139,5.0,9.0,86,0.00,,,0.00,meteohub,2013-02-28 04:45:00,
2013-02-27 20:51:00,51.6,47.8,30.40,SE,137,3.0,8.0,87,0.00,,,0.00,meteohub,2013-02-28 04:51:00,
2013-02-27 20:56:00,51.6,47.8,30.40,SE,134,5.0,8.0,87,0.00,,,0.00,meteohub,2013-02-28 04:56:00,
2013-02-27 21:00:00,51.8,48.0,30.40,SE,129,3.0,8.0,87,0.00,,,0.00,meteohub,2013-02-28 05:00:00,
2013-02-27 21:01:00,51.8,48.0,30.40,SE,128,3.0,8.0,87,0.00,,,0.00,meteohub,2013-02-28 05:01:00,
2013-02-27 21:02:00,51.8,48.0,30.40,SE,143,5.0,8.0,87,0.00,,,0.00,meteohub,2013-02-28 05:02:00,
2013-02-27 21:07:00,52.0,48.2,30.40,SSE,157,6.0,8.0,87,0.00,,,0.00,meteohub,2013-02-28 05:07:00,
2013-02-27 21:12:00,52.0,47.8,30.40,SSE,149,3.0,7.0,86,0.00,,,0.00,meteohub,2013-02-28 05:12:00,
2013-02-27 21:17:00,51.8,48.0,30.40,SSE,152,6.0,7.0,87,0.00,,,0.00,meteohub,2013-02-28 05:17:00,
2013-02-27 21:22:00,51.4,47.7,30.40,SSE,153,9.0,9.0,87,0.00,,,0.00,meteohub,2013-02-28 05:22:00,
2013-02-27 21:27:00,51.4,48.0,30.40,SSE,149,3.0,10.0,88,0.00,,,0.00,meteohub,2013-02-28 05:27:00,
2013-02-27 21:32:00,51.4,48.0,30.40,SSE,150,6.0,10.0,88,0.00,,,0.00,meteohub,2013-02-28 05:32:00,
2013-02-27 21:37:00,51.3,47.8,30.40,SSE,162,7.0,10.0,88,0.00,,,0.00,meteohub,2013-02-28 05:37:00,
2013-02-27 21:42:00,51.1,47.7,30.40,SSE,154,4.0,8.0,88,0.00,,,0.00,meteohub,2013-02-28 05:42:00,
2013-02-27 21:48:00,51.1,48.0,30.40,SSE,161,3.0,8.0,89,0.00,,,0.00,meteohub,2013-02-28 05:48:00,
2013-02-27 21:53:00,51.1,48.0,30.40,SSE,164,4.0,8.0,89,0.00,,,0.00,meteohub,2013-02-28 05:53:00,
2013-02-27 21:58:00,51.1,47.7,30.41,SSE,155,6.0,8.0,88,0.00,,,0.00,meteohub,2013-02-28 05:58:00,
2013-02-27 22:03:00,51.1,47.7,30.41,SSE,161,4.0,8.0,88,0.00,,,0.00,meteohub,2013-02-28 06:03:00,
2013-02-27 22:08:00,51.1,47.7,30.41,SSE,151,4.0,7.0,88,0.00,,,0.00,meteohub,2013-02-28 06:08:00,
2013-02-27 22:13:00,50.9,47.5,30.41,SSE,152,1.0,8.0,88,0.00,,,0.00,meteohub,2013-02-28 06:13:00,
2013-02-27 22:18:00,50.9,47.5,30.41,SSE,152,2.0,8.0,88,0.00,,,0.00,meteohub,2013-02-28 06:18:00,
2013-02-27 22:23:00,50.7,47.3,30.42,SSE,149,4.0,6.0,88,0.00,,,0.00,meteohub,2013-02-28 06:23:00,
2013-02-27 22:28:00,50.7,47.3,30.42,SSE,149,4.0,5.0,88,0.00,,,0.00,meteohub,2013-02-28 06:28:00,
2013-02-27 22:33:00,50.7,47.3,30.42,SSE,155,3.0,5.0,88,0.00,,,0.00,meteohub,2013-02-28 06:33:00,
2013-02-27 22:38:00,51.1,47.7,30.42,South,183,1.0,5.0,88,0.00,,,0.00,meteohub,2013-02-28 06:38:00,
2013-02-27 22:43:00,51.1,47.3,30.42,SSE,156,2.0,7.0,87,0.00,,,0.00,meteohub,2013-02-28 06:43:00,
2013-02-27 22:48:00,51.3,47.3,30.42,SSE,158,3.0,7.0,86,0.00,,,0.00,meteohub,2013-02-28 06:48:00,
2013-02-27 22:53:00,51.3,47.3,30.42,SSE,163,3.0,7.0,86,0.00,,,0.00,meteohub,2013-02-28 06:53:00,
2013-02-27 22:58:00,51.4,47.5,30.42,SSE,162,2.0,5.0,86,0.00,,,0.00,meteohub,2013-02-28 06:58:00,
2013-02-27 23:03:00,51.4,47.5,30.42,SSE,162,5.0,5.0,86,0.00,,,0.00,meteohub,2013-02-28 07:03:00,
2013-02-27 23:08:00,51.4,47.5,30.42,SSE,152,2.0,7.0,86,0.00,,,0.00,meteohub,2013-02-28 07:08:00,
2013-02-27 23:13:00,51.3,47.3,30.42,SSE,152,2.0,7.0,86,0.00,,,0.00,meteohub,2013-02-28 07:13:00,
2013-02-27 23:18:00,50.9,46.6,30.42,SE,145,3.0,7.0,85,0.00,,,0.00,meteohub,2013-02-28 07:18:00,
2013-02-27 23:23:00,50.7,46.4,30.41,SSE,149,2.0,6.0,85,0.00,,,0.00,meteohub,2013-02-28 07:23:00,
2013-02-27 23:28:00,50.7,46.4,30.41,SE,146,1.0,6.0,85,0.00,,,0.00,meteohub,2013-02-28 07:28:00,
2013-02-27 23:33:00,50.5,46.2,30.42,SSE,147,0.0,6.0,85,0.00,,,0.00,meteohub,2013-02-28 07:33:00,
2013-02-27 23:38:00,50.5,46.2,30.42,SSE,147,3.0,5.0,85,0.00,,,0.00,meteohub,2013-02-28 07:38:00,
2013-02-27 23:43:00,50.5,46.6,30.42,SSE,147,1.0,5.0,86,0.00,,,0.00,meteohub,2013-02-28 07:43:00,
2013-02-27 23:48:00,50.5,46.6,30.42,SSE,148,2.0,4.0,86,0.00,,,0.00,meteohub,2013-02-28 07:48:00,
2013-02-27 23:53:00,50.4,46.4,30.42,SSE,149,2.0,4.0,86,0.00,,,0.00,meteohub,2013-02-28 07:53:00,
2013-02-27 23:59:00,50.2,46.2,30.42,SSE,149,1.0,4.0,86,0.00,,,0.00,meteohub,2013-02-28 07:59:00,